Time;durP1;ratioP1;P1;durP2;ratioP2;P2;SDS_P1;SDS_P2;PMS_P1;PMS_P2;Temp;Humidity;BMP_temperature;BMP_pressure;BME280_temperature;BME280_humidity;BME280_pressure;Samples;Min_cycle;Max_cycle;Signal;HPM_P1;HPM_P2
2023/04/04 00:02:07;;;;;;;5.63;3.25;;;;;;;;;;5038339;28;20063;-78
2023/04/04 00:04:46;;;;;;;15.00;4.07;;;;;;;;;;5034310;28;20155;-79
2023/04/04 00:07:33;;;;;;;7.45;2.85;;;;;;;;;;5037631;28;20068;-79
2023/04/04 00:09:58;;;;;;;6.85;3.72;;;;;;;;;;5048075;28;20098;-79
2023/04/04 00:12:24;;;;;;;11.45;3.75;;;;;;;;;;5040856;28;20026;-79
2023/04/04 00:15:02;;;;;;;7.20;3.42;;;;;;;;;;5044011;28;20055;-79
2023/04/04 00:17:27;;;;;;;11.43;3.03;;;;;;;;;;5030286;28;20033;-80
2023/04/04 00:19:52;;;;;;;5.85;2.97;;;;;;;;;;5032766;28;20028;-79
2023/04/04 00:22:31;;;;;;;10.50;2.92;;;;;;;;;;5037373;28;20052;-79
2023/04/04 00:24:57;;;;;;;16.90;3.50;;;;;;;;;;5045821;28;20037;-79
2023/04/04 00:27:23;;;;;;;5.32;2.33;;;;;;;;;;5046415;28;20026;-79
2023/04/04 00:30:01;;;;;;;9.23;3.38;;;;;;;;;;5050486;28;20433;-79
2023/04/04 00:32:26;;;;;;;10.45;3.05;;;;;;;;;;5033153;28;20084;-79
2023/04/04 00:34:52;;;;;;;6.03;2.80;;;;;;;;;;5030399;28;20025;-78
2023/04/04 00:37:31;;;;;;;7.65;2.65;;;;;;;;;;5032607;28;20029;-79
2023/04/04 00:40:21;;;;;;;15.68;3.42;;;;;;;;;;5033930;28;20037;-78
2023/04/04 00:43:00;;;;;;;6.75;2.60;;;;;;;;;;5027459;28;20032;-79
2023/04/04 00:45:26;;;;;;;4.82;2.70;;;;;;;;;;5028757;28;20523;-79
2023/04/04 00:47:52;;;;;;;7.07;2.60;;;;;;;;;;5043777;28;20026;-79
2023/04/04 00:50:31;;;;;;;7.57;2.60;;;;;;;;;;5050669;28;20039;-79
2023/04/04 00:52:56;;;;;;;18.70;3.17;;;;;;;;;;5044397;28;20079;-79
2023/04/04 00:55:22;;;;;;;7.88;3.03;;;;;;;;;;5042846;28;20029;-79
2023/04/04 00:58:01;;;;;;;6.53;2.95;;;;;;;;;;5037625;28;20500;-79
2023/04/04 01:00:27;;;;;;;7.35;2.50;;;;;;;;;;5037918;28;20052;-79
2023/04/04 01:02:52;;;;;;;5.53;2.75;;;;;;;;;;5041457;28;20020;-79
2023/04/04 01:05:31;;;;;;;5.63;2.80;;;;;;;;;;5043733;28;20032;-79
2023/04/04 01:07:57;;;;;;;6.60;2.97;;;;;;;;;;5036904;28;20107;-79
2023/04/04 01:10:22;;;;;;;5.93;2.75;;;;;;;;;;5039578;28;20120;-78
2023/04/04 01:13:01;;;;;;;6.53;2.70;;;;;;;;;;5038503;28;20052;-79
2023/04/04 01:15:26;;;;;;;4.38;2.40;;;;;;;;;;5037058;28;20045;-78
2023/04/04 01:18:08;;;;;;;5.35;2.85;;;;;;;;;;5042185;28;20036;-79
2023/04/04 01:20:36;;;;;;;7.22;2.47;;;;;;;;;;5035217;28;20045;-78
2023/04/04 01:23:15;;;;;;;10.57;2.88;;;;;;;;;;5021982;28;20048;-78
2023/04/04 01:25:41;;;;;;;8.35;3.45;;;;;;;;;;5035165;28;20095;-78
2023/04/04 01:28:07;;;;;;;4.63;2.72;;;;;;;;;;5042014;28;20532;-78
2023/04/04 01:30:45;;;;;;;5.63;2.67;;;;;;;;;;5041999;28;20148;-79
2023/04/04 01:33:28;;;;;;;7.05;3.00;;;;;;;;;;5044325;28;20120;-78
2023/04/04 01:36:28;;;;;;;6.13;2.22;;;;;;;;;;5035014;28;20029;-78
2023/04/04 01:39:00;;;;;;;12.82;2.58;;;;;;;;;;5034826;28;20091;-78
2023/04/04 01:41:39;;;;;;;13.40;2.85;;;;;;;;;;5038393;28;20037;-79
2023/04/04 01:44:05;;;;;;;4.93;2.28;;;;;;;;;;5038196;28;20167;-78
2023/04/04 01:46:31;;;;;;;7.85;2.33;;;;;;;;;;5040536;28;20116;-78
2023/04/04 01:49:09;;;;;;;5.65;2.38;;;;;;;;;;5040574;28;20485;-78
2023/04/04 01:51:34;;;;;;;7.80;2.70;;;;;;;;;;5035002;28;20036;-78
2023/04/04 01:53:59;;;;;;;3.22;1.90;;;;;;;;;;5038558;28;20033;-78
2023/04/04 01:56:38;;;;;;;6.47;2.42;;;;;;;;;;5043113;28;20377;-78
2023/04/04 01:59:03;;;;;;;3.63;2.10;;;;;;;;;;5035765;28;20041;-79
2023/04/04 02:01:28;;;;;;;8.60;2.30;;;;;;;;;;5038770;28;20033;-78
2023/04/04 02:04:10;;;;;;;9.57;2.50;;;;;;;;;;5043204;28;20090;-78
2023/04/04 02:06:35;;;;;;;4.68;2.45;;;;;;;;;;5043521;28;20782;-78
2023/04/04 02:09:14;;;;;;;17.60;2.45;;;;;;;;;;5036404;28;20053;-78
2023/04/04 02:11:39;;;;;;;5.57;2.53;;;;;;;;;;5047437;28;20086;-79
2023/04/04 02:14:05;;;;;;;7.18;2.47;;;;;;;;;;5045057;28;20028;-78
2023/04/04 02:16:44;;;;;;;5.38;2.20;;;;;;;;;;5035768;28;20095;-78
2023/04/04 02:19:10;;;;;;;7.38;2.35;;;;;;;;;;5044399;28;20378;-78
2023/04/04 02:21:36;;;;;;;6.38;3.35;;;;;;;;;;5041925;28;20082;-78
2023/04/04 02:24:14;;;;;;;4.10;2.15;;;;;;;;;;5049519;28;20074;-78
2023/04/04 02:26:39;;;;;;;7.13;1.98;;;;;;;;;;5041806;28;20040;-78
2023/04/04 02:29:05;;;;;;;3.70;2.30;;;;;;;;;;5039209;28;20041;-78
2023/04/04 02:31:44;;;;;;;7.85;2.67;;;;;;;;;;5039971;28;20037;-78
2023/04/04 02:34:10;;;;;;;6.18;2.30;;;;;;;;;;5040241;28;20033;-78
2023/04/04 02:36:36;;;;;;;5.45;2.13;;;;;;;;;;5043169;28;20718;-78
2023/04/04 02:39:15;;;;;;;8.18;2.20;;;;;;;;;;5034387;28;20055;-78
2023/04/04 02:41:40;;;;;;;2.50;1.50;;;;;;;;;;5034696;28;20041;-78
2023/04/04 02:44:07;;;;;;;4.78;2.47;;;;;;;;;;5034892;28;20029;-78
2023/04/04 02:46:46;;;;;;;6.53;2.15;;;;;;;;;;5036504;28;20040;-78
2023/04/04 02:49:11;;;;;;;10.23;2.38;;;;;;;;;;5036936;28;20047;-78
2023/04/04 02:51:36;;;;;;;2.67;1.33;;;;;;;;;;5034797;28;20041;-78
2023/04/04 02:54:15;;;;;;;2.67;1.73;;;;;;;;;;5038612;28;20043;-78
2023/04/04 02:56:41;;;;;;;5.18;2.00;;;;;;;;;;5039933;28;20120;-78
2023/04/04 02:59:06;;;;;;;3.97;1.63;;;;;;;;;;5040940;28;20115;-78
2023/04/04 03:01:45;;;;;;;6.75;2.42;;;;;;;;;;5049399;28;20037;-78
2023/04/04 03:04:10;;;;;;;4.10;2.25;;;;;;;;;;5036212;28;20499;-78
2023/04/04 03:06:36;;;;;;;6.63;1.75;;;;;;;;;;5032662;28;20037;-78
2023/04/04 03:09:16;;;;;;;4.47;1.92;;;;;;;;;;5035759;28;20115;-78
2023/04/04 03:11:41;;;;;;;3.85;2.03;;;;;;;;;;5034461;28;20029;-78
2023/04/04 03:14:07;;;;;;;3.55;1.50;;;;;;;;;;5042954;28;20033;-78
2023/04/04 03:16:48;;;;;;;2.80;1.55;;;;;;;;;;5036041;28;20033;-78
2023/04/04 03:19:14;;;;;;;9.00;2.35;;;;;;;;;;5036623;28;20041;-78
2023/04/04 03:21:53;;;;;;;2.42;1.38;;;;;;;;;;5039174;28;20660;-78
2023/04/04 03:24:18;;;;;;;3.47;1.70;;;;;;;;;;5042462;28;20538;-78
2023/04/04 03:26:43;;;;;;;3.58;1.77;;;;;;;;;;5040916;28;20029;-78
2023/04/04 03:29:22;;;;;;;3.25;1.70;;;;;;;;;;5034863;28;20045;-78
2023/04/04 03:31:47;;;;;;;5.13;1.67;;;;;;;;;;5028477;28;20038;-79
2023/04/04 03:34:13;;;;;;;5.90;2.25;;;;;;;;;;5041501;28;20033;-78
2023/04/04 03:36:52;;;;;;;4.35;2.05;;;;;;;;;;5037917;28;20033;-78
2023/04/04 03:39:18;;;;;;;13.95;2.60;;;;;;;;;;5038823;28;20065;-78
2023/04/04 03:41:43;;;;;;;14.23;3.20;;;;;;;;;;5035254;28;20057;-78
2023/04/04 03:44:22;;;;;;;6.78;1.63;;;;;;;;;;5040758;28;20041;-78
2023/04/04 03:46:47;;;;;;;5.65;2.03;;;;;;;;;;5036362;28;20053;-78
2023/04/04 03:49:12;;;;;;;2.92;1.70;;;;;;;;;;5034120;28;20045;-78
2023/04/04 03:51:51;;;;;;;2.70;1.15;;;;;;;;;;5033874;28;20037;-78
2023/04/04 03:54:16;;;;;;;2.92;1.27;;;;;;;;;;5040532;28;20072;-78
2023/04/04 03:56:42;;;;;;;3.25;1.60;;;;;;;;;;5048177;28;20064;-78
2023/04/04 03:59:20;;;;;;;9.10;2.13;;;;;;;;;;5046226;28;20435;-78
2023/04/04 04:01:46;;;;;;;10.15;1.90;;;;;;;;;;5047327;28;20042;-77
2023/04/04 04:04:11;;;;;;;6.03;1.88;;;;;;;;;;5040892;28;20106;-78
2023/04/04 04:06:50;;;;;;;3.92;1.85;;;;;;;;;;5036449;28;20029;-77
2023/04/04 04:09:15;;;;;;;3.13;1.98;;;;;;;;;;5040273;28;20484;-78
2023/04/04 04:11:41;;;;;;;6.57;1.98;;;;;;;;;;5035893;28;20083;-77
2023/04/04 04:14:21;;;;;;;5.18;2.28;;;;;;;;;;5034415;28;20033;-77
2023/04/04 04:16:46;;;;;;;5.82;1.90;;;;;;;;;;5029899;28;20132;-78
2023/04/04 04:19:11;;;;;;;8.75;1.77;;;;;;;;;;5032243;28;20082;-78
2023/04/04 04:21:50;;;;;;;4.38;1.98;;;;;;;;;;5035270;28;20043;-77
2023/04/04 04:24:15;;;;;;;8.48;1.92;;;;;;;;;;5038727;28;20040;-77
2023/04/04 04:26:41;;;;;;;5.03;1.58;;;;;;;;;;5045366;28;20025;-77
2023/04/04 04:29:19;;;;;;;2.90;1.67;;;;;;;;;;5038865;28;20086;-77
2023/04/04 04:31:44;;;;;;;2.60;1.40;;;;;;;;;;5043891;28;20041;-77
2023/04/04 04:34:10;;;;;;;6.57;2.67;;;;;;;;;;5048708;28;20025;-77
2023/04/04 04:36:49;;;;;;;5.10;1.73;;;;;;;;;;5051517;28;20078;-77
2023/04/04 04:39:15;;;;;;;5.97;2.20;;;;;;;;;;5048542;28;20385;-78
2023/04/04 04:41:40;;;;;;;8.10;2.03;;;;;;;;;;5044481;28;20025;-77
2023/04/04 04:44:19;;;;;;;2.65;1.50;;;;;;;;;;5036496;28;20105;-77
2023/04/04 04:46:44;;;;;;;2.90;1.75;;;;;;;;;;5042469;28;20079;-77
2023/04/04 04:49:09;;;;;;;2.30;1.45;;;;;;;;;;5040606;28;20033;-77
2023/04/04 04:51:48;;;;;;;5.40;1.30;;;;;;;;;;5043580;28;20038;-77
2023/04/04 04:54:13;;;;;;;5.78;1.92;;;;;;;;;;5041733;28;20389;-77
2023/04/04 04:56:38;;;;;;;5.28;1.92;;;;;;;;;;5045457;28;20036;-77
2023/04/04 04:59:17;;;;;;;6.75;1.42;;;;;;;;;;5046832;28;20047;-77
2023/04/04 05:01:42;;;;;;;4.32;1.50;;;;;;;;;;5031363;28;20032;-78
2023/04/04 05:04:07;;;;;;;9.10;1.55;;;;;;;;;;5035454;28;20402;-78
2023/04/04 05:06:46;;;;;;;6.65;1.67;;;;;;;;;;5044653;28;20437;-77
2023/04/04 05:09:11;;;;;;;11.00;1.67;;;;;;;;;;5041471;28;20413;-78
2023/04/04 05:11:36;;;;;;;3.17;1.58;;;;;;;;;;5045619;28;20033;-77
2023/04/04 05:14:15;;;;;;;4.60;2.13;;;;;;;;;;5038975;28;20044;-77
2023/04/04 05:16:41;;;;;;;7.22;1.80;;;;;;;;;;5042125;28;20041;-77
2023/04/04 05:19:06;;;;;;;9.73;1.52;;;;;;;;;;5040967;28;20030;-77
2023/04/04 05:21:45;;;;;;;13.05;3.75;;;;;;;;;;5047699;28;20036;-77
2023/04/04 05:24:11;;;;;;;3.22;1.75;;;;;;;;;;5042501;28;20049;-77
2023/04/04 05:26:36;;;;;;;9.88;1.98;;;;;;;;;;5045042;28;20100;-77
2023/04/04 05:29:15;;;;;;;6.07;1.77;;;;;;;;;;5048114;28;20120;-77
2023/04/04 05:31:40;;;;;;;4.95;1.67;;;;;;;;;;5040678;28;20045;-77
2023/04/04 05:34:08;;;;;;;4.30;1.58;;;;;;;;;;5043192;28;20044;-77
2023/04/04 05:36:47;;;;;;;3.40;1.50;;;;;;;;;;5042987;28;20025;-76
2023/04/04 05:39:12;;;;;;;8.40;1.75;;;;;;;;;;5035831;28;20053;-77
2023/04/04 05:41:37;;;;;;;8.05;2.15;;;;;;;;;;5048176;28;20037;-77
2023/04/04 05:44:16;;;;;;;4.57;1.52;;;;;;;;;;5038273;28;20053;-77
2023/04/04 05:46:41;;;;;;;3.75;1.83;;;;;;;;;;5042543;28;20091;-77
2023/04/04 05:49:06;;;;;;;12.57;1.85;;;;;;;;;;5039402;28;20037;-77
2023/04/04 05:51:45;;;;;;;6.07;1.90;;;;;;;;;;5036845;28;20041;-77
2023/04/04 05:54:10;;;;;;;5.03;1.58;;;;;;;;;;5036909;28;20132;-77
2023/04/04 05:56:36;;;;;;;5.90;1.73;;;;;;;;;;5038882;28;20151;-77
2023/04/04 05:59:15;;;;;;;12.40;2.97;;;;;;;;;;5038734;28;20183;-77
2023/04/04 06:01:40;;;;;;;9.82;1.95;;;;;;;;;;5048460;28;20488;-77
2023/04/04 06:04:05;;;;;;;8.27;1.75;;;;;;;;;;5035857;28;20064;-77
2023/04/04 06:06:44;;;;;;;4.68;1.63;;;;;;;;;;5044178;28;20037;-77
2023/04/04 06:09:09;;;;;;;13.15;2.00;;;;;;;;;;5041076;28;20084;-76
2023/04/04 06:11:34;;;;;;;3.65;1.67;;;;;;;;;;5042105;28;20052;-77
2023/04/04 06:14:13;;;;;;;7.68;1.98;;;;;;;;;;5034677;28;20141;-77
2023/04/04 06:16:38;;;;;;;3.95;1.90;;;;;;;;;;5034154;28;20068;-77
2023/04/04 06:19:03;;;;;;;7.18;2.10;;;;;;;;;;5039986;28;20068;-78
2023/04/04 06:21:42;;;;;;;5.25;2.38;;;;;;;;;;5038454;28;20079;-78
2023/04/04 06:24:07;;;;;;;8.18;2.40;;;;;;;;;;5046501;28;20405;-78
2023/04/04 06:26:33;;;;;;;8.88;1.77;;;;;;;;;;5043633;28;20049;-78
2023/04/04 06:29:12;;;;;;;4.63;1.80;;;;;;;;;;5038827;28;20051;-78
2023/04/04 06:31:37;;;;;;;7.18;1.90;;;;;;;;;;5035881;28;20120;-79
2023/04/04 06:34:02;;;;;;;462.23;24.15;;;;;;;;;;5039814;28;20113;-78
2023/04/04 06:36:41;;;;;;;1999.50;107.20;;;;;;;;;;5038104;28;20115;-79
2023/04/04 06:39:06;;;;;;;1235.18;59.97;;;;;;;;;;5028922;28;20088;-79
2023/04/04 06:41:32;;;;;;;1766.45;82.43;;;;;;;;;;5045426;28;20025;-78
2023/04/04 06:44:11;;;;;;;1866.93;89.47;;;;;;;;;;5044294;28;20072;-80
2023/04/04 06:46:37;;;;;;;1999.90;129.43;;;;;;;;;;5039016;28;20048;-79
2023/04/04 06:49:03;;;;;;;1999.90;170.55;;;;;;;;;;5051328;28;20037;-79
2023/04/04 06:51:42;;;;;;;1999.90;126.15;;;;;;;;;;5036033;28;20029;-79
2023/04/04 06:54:07;;;;;;;1989.20;89.63;;;;;;;;;;5037026;28;20041;-79
2023/04/04 06:56:32;;;;;;;1144.07;51.47;;;;;;;;;;5040934;28;20036;-80
2023/04/04 06:59:11;;;;;;;1097.20;45.92;;;;;;;;;;5036077;28;20108;-79
2023/04/04 07:01:37;;;;;;;931.53;42.20;;;;;;;;;;5042593;28;20029;-80
2023/04/04 07:04:02;;;;;;;130.55;7.68;;;;;;;;;;5052309;28;20497;-80
2023/04/04 07:06:41;;;;;;;102.28;6.38;;;;;;;;;;5033115;28;20514;-80
2023/04/04 07:09:06;;;;;;;212.05;12.88;;;;;;;;;;5038836;28;20063;-80
2023/04/04 07:11:32;;;;;;;26.85;3.13;;;;;;;;;;5046099;28;20026;-80
2023/04/04 07:14:10;;;;;;;9.95;1.90;;;;;;;;;;5039251;28;20112;-80
2023/04/04 07:16:35;;;;;;;5.97;1.90;;;;;;;;;;5040423;28;20047;-80
2023/04/04 07:19:01;;;;;;;4.65;2.10;;;;;;;;;;5030760;28;20116;-78
2023/04/04 07:21:40;;;;;;;5.65;1.70;;;;;;;;;;5036082;28;20040;-77
2023/04/04 07:24:06;;;;;;;5.35;1.88;;;;;;;;;;5023613;28;20072;-78
2023/04/04 07:26:33;;;;;;;4.78;2.13;;;;;;;;;;5044634;28;20055;-80
2023/04/04 07:29:12;;;;;;;5.15;1.95;;;;;;;;;;5047635;28;20028;-79
2023/04/04 07:31:37;;;;;;;4.75;2.30;;;;;;;;;;5045123;28;20116;-79
2023/04/04 07:34:03;;;;;;;6.70;2.08;;;;;;;;;;5044815;28;20067;-79
2023/04/04 07:36:41;;;;;;;5.70;2.00;;;;;;;;;;5042486;28;20044;-79
2023/04/04 07:39:06;;;;;;;4.63;2.30;;;;;;;;;;5050494;28;20044;-80
2023/04/04 07:41:32;;;;;;;4.20;2.05;;;;;;;;;;5045159;28;20021;-79
2023/04/04 07:44:11;;;;;;;5.32;2.30;;;;;;;;;;5039721;28;20032;-80
2023/04/04 07:46:37;;;;;;;7.35;2.22;;;;;;;;;;5032044;28;20041;-77
2023/04/04 07:49:02;;;;;;;10.02;2.42;;;;;;;;;;5038093;28;20029;-80
2023/04/04 07:51:41;;;;;;;9.50;2.72;;;;;;;;;;5038504;28;20477;-81
2023/04/04 07:54:07;;;;;;;5.13;2.35;;;;;;;;;;5038126;28;20041;-81
2023/04/04 07:56:32;;;;;;;10.60;2.83;;;;;;;;;;5032030;28;20032;-78
2023/04/04 07:59:11;;;;;;;6.88;2.90;;;;;;;;;;5015106;28;20473;-82
2023/04/04 08:01:36;;;;;;;7.88;2.80;;;;;;;;;;5017259;28;20080;-82
2023/04/04 08:04:01;;;;;;;7.07;2.90;;;;;;;;;;5033356;28;20060;-82
2023/04/04 08:06:40;;;;;;;7.72;2.80;;;;;;;;;;5038153;28;20032;-82
2023/04/04 08:09:06;;;;;;;6.93;2.80;;;;;;;;;;5018578;28;20076;-83
2023/04/04 08:11:31;;;;;;;7.50;2.70;;;;;;;;;;5036993;28;20021;-78
2023/04/04 08:14:10;;;;;;;4.63;2.30;;;;;;;;;;5033228;28;20037;-83
2023/04/04 08:16:37;;;;;;;5.93;2.65;;;;;;;;;;5034860;28;20491;-80
2023/04/04 08:19:03;;;;;;;7.30;3.03;;;;;;;;;;5041595;28;20039;-82
2023/04/04 08:21:41;;;;;;;7.35;3.13;;;;;;;;;;5042080;28;20021;-82
2023/04/04 08:24:07;;;;;;;6.65;2.53;;;;;;;;;;5044317;28;20036;-82
2023/04/04 08:26:32;;;;;;;9.35;3.90;;;;;;;;;;5025577;28;20033;-84
2023/04/04 08:29:11;;;;;;;10.05;3.33;;;;;;;;;;5039615;28;20067;-83
2023/04/04 08:31:38;;;;;;;8.75;3.80;;;;;;;;;;5043948;28;20380;-84
2023/04/04 08:34:06;;;;;;;8.35;4.00;;;;;;;;;;5041885;28;20447;-84
2023/04/04 08:36:45;;;;;;;9.30;4.20;;;;;;;;;;5029966;28;20373;-84
2023/04/04 08:39:10;;;;;;;10.13;3.63;;;;;;;;;;5040569;28;20128;-84
2023/04/04 08:41:36;;;;;;;9.60;3.72;;;;;;;;;;5037648;28;20525;-84
2023/04/04 08:44:20;;;;;;;7.63;3.95;;;;;;;;;;5043526;28;20107;-84
2023/04/04 08:46:46;;;;;;;7.45;3.65;;;;;;;;;;5035014;28;20119;-85
2023/04/04 08:49:25;;;;;;;9.50;3.92;;;;;;;;;;5032367;28;20064;-85
2023/04/04 08:51:51;;;;;;;9.30;3.90;;;;;;;;;;5036354;28;20152;-83
2023/04/04 08:54:16;;;;;;;10.25;3.80;;;;;;;;;;5040165;28;20532;-85
2023/04/04 08:56:55;;;;;;;9.98;4.13;;;;;;;;;;5036598;28;20106;-83
2023/04/04 08:59:21;;;;;;;8.07;3.78;;;;;;;;;;5020146;28;20067;-86
2023/04/04 09:01:46;;;;;;;13.85;4.28;;;;;;;;;;5030181;28;20480;-85
2023/04/04 09:04:26;;;;;;;8.93;3.92;;;;;;;;;;5033740;28;20424;-85
2023/04/04 09:06:52;;;;;;;8.82;4.30;;;;;;;;;;5035169;28;20844;-84
2023/04/04 09:09:18;;;;;;;9.40;3.75;;;;;;;;;;5043402;28;20136;-83
2023/04/04 09:11:59;;;;;;;8.80;4.20;;;;;;;;;;5048797;28;20515;-84
2023/04/04 09:14:26;;;;;;;8.73;4.10;;;;;;;;;;5045910;28;20090;-83
2023/04/04 09:17:04;;;;;;;7.10;3.55;;;;;;;;;;5045598;28;20083;-84
2023/04/04 09:19:30;;;;;;;9.23;4.43;;;;;;;;;;5047524;28;20059;-85
2023/04/04 09:21:55;;;;;;;10.77;3.88;;;;;;;;;;5044838;28;20461;-85
2023/04/04 09:24:50;;;;;;;8.07;4.18;;;;;;;;;;5040891;28;20037;-86
2023/04/04 09:27:16;;;;;;;10.80;4.25;;;;;;;;;;5038723;28;20536;-85
2023/04/04 09:29:47;;;;;;;9.48;4.10;;;;;;;;;;5040783;28;20031;-85
2023/04/04 09:32:21;;;;;;;11.23;4.13;;;;;;;;;;5024140;28;20073;-85
2023/04/04 09:34:47;;;;;;;11.13;4.18;;;;;;;;;;5040352;28;20476;-84
2023/04/04 09:37:20;;;;;;;11.23;4.30;;;;;;;;;;5037417;28;20034;-86
2023/04/04 09:39:52;;;;;;;16.15;4.15;;;;;;;;;;5041767;28;20038;-84
2023/04/04 09:42:17;;;;;;;10.77;4.17;;;;;;;;;;5040060;28;20376;-85
2023/04/04 09:45:01;;;;;;;10.05;4.28;;;;;;;;;;5035718;28;20079;-78
2023/04/04 09:47:27;;;;;;;11.32;4.88;;;;;;;;;;5037570;28;20060;-85
2023/04/04 09:49:59;;;;;;;8.45;4.20;;;;;;;;;;5037343;28;20044;-85
2023/04/04 09:52:35;;;;;;;10.07;5.25;;;;;;;;;;5027422;28;20094;-85
2023/04/04 09:55:08;;;;;;;7.38;3.90;;;;;;;;;;5037479;28;20052;-85
2023/04/04 09:57:40;;;;;;;11.02;3.97;;;;;;;;;;5041245;28;20045;-86
2023/04/04 10:00:08;;;;;;;13.47;5.13;;;;;;;;;;5038318;28;20465;-85
2023/04/04 10:02:57;;;;;;;12.43;4.63;;;;;;;;;;5033343;28;20083;-86
2023/04/04 10:05:22;;;;;;;7.90;4.60;;;;;;;;;;5036444;28;20045;-86
2023/04/04 10:08:02;;;;;;;9.30;4.40;;;;;;;;;;5031872;28;20048;-84
2023/04/04 10:10:30;;;;;;;12.15;5.30;;;;;;;;;;5030780;28;20075;-85
2023/04/04 10:13:09;;;;;;;12.07;4.82;;;;;;;;;;5040510;28;20036;-85
2023/04/04 10:15:36;;;;;;;10.80;5.60;;;;;;;;;;5046732;28;20404;-84
2023/04/04 10:18:16;;;;;;;9.52;5.28;;;;;;;;;;5046102;28;20037;-80
2023/04/04 10:20:43;;;;;;;14.75;5.57;;;;;;;;;;5030039;28;20099;-84
2023/04/04 10:23:08;;;;;;;11.18;5.47;;;;;;;;;;5039074;28;20132;-84
2023/04/04 10:25:48;;;;;;;8.10;4.63;;;;;;;;;;5050091;28;20115;-83
2023/04/04 10:28:13;;;;;;;10.75;4.68;;;;;;;;;;5034474;28;20048;-82
2023/04/04 10:31:07;;;;;;;8.30;5.10;;;;;;;;;;5046065;28;20465;-83
2023/04/04 10:34:12;;;;;;;10.07;5.88;;;;;;;;;;5040696;28;20048;-83
2023/04/04 10:36:56;;;;;;;10.35;5.28;;;;;;;;;;5030657;28;20029;-82
2023/04/04 10:39:26;;;;;;;12.90;6.40;;;;;;;;;;5037324;28;20046;-81
2023/04/04 10:42:06;;;;;;;12.60;5.18;;;;;;;;;;5039140;28;20037;-81
2023/04/04 10:44:40;;;;;;;14.02;7.03;;;;;;;;;;5034770;28;20052;-80
2023/04/04 10:47:28;;;;;;;15.25;6.93;;;;;;;;;;5035305;28;20034;-80
2023/04/04 10:49:54;;;;;;;14.05;6.15;;;;;;;;;;5029031;28;20053;-80
2023/04/04 10:52:27;;;;;;;12.48;6.68;;;;;;;;;;5016865;28;20085;-77
2023/04/04 10:55:03;;;;;;;14.83;6.90;;;;;;;;;;5036911;28;20432;-80
2023/04/04 10:58:01;;;;;;;15.80;6.25;;;;;;;;;;5042261;28;20045;-79
2023/04/04 11:00:32;;;;;;;13.75;6.75;;;;;;;;;;5044631;28;20128;-79
2023/04/04 11:03:04;;;;;;;13.88;5.88;;;;;;;;;;5036111;28;20048;-79
2023/04/04 11:05:29;;;;;;;15.48;7.05;;;;;;;;;;5030242;28;20063;-79
2023/04/04 11:08:21;;;;;;;14.27;6.80;;;;;;;;;;5030234;28;20474;-79
2023/04/04 11:10:48;;;;;;;14.25;6.40;;;;;;;;;;5032445;28;20056;-82
2023/04/04 11:13:40;;;;;;;11.52;6.60;;;;;;;;;;5030050;28;20034;-79
2023/04/04 11:16:08;;;;;;;14.00;6.65;;;;;;;;;;5040740;28;20044;-80
2023/04/04 11:18:47;;;;;;;10.00;5.95;;;;;;;;;;5028628;28;20044;-82
2023/04/04 11:21:22;;;;;;;12.95;7.00;;;;;;;;;;5034231;28;20108;-80
2023/04/04 11:24:04;;;;;;;12.98;6.07;;;;;;;;;;5039986;28;20037;-79
2023/04/04 11:26:29;;;;;;;14.05;6.30;;;;;;;;;;5038480;28;20427;-81
2023/04/04 11:29:02;;;;;;;14.38;7.20;;;;;;;;;;5038394;28;20037;-81
2023/04/04 11:31:45;;;;;;;11.68;6.20;;;;;;;;;;5032960;28;20559;-81
2023/04/04 11:34:31;;;;;;;13.77;5.97;;;;;;;;;;5024320;28;20051;-81
2023/04/04 11:37:04;;;;;;;14.68;6.10;;;;;;;;;;5043006;28;20034;-80
2023/04/04 11:39:49;;;;;;;9.13;5.57;;;;;;;;;;5044594;28;20040;-81
2023/04/04 11:42:21;;;;;;;12.90;5.18;;;;;;;;;;5035716;28;20049;-80
2023/04/04 11:44:53;;;;;;;12.98;6.22;;;;;;;;;;5039531;28;20061;-80
2023/04/04 11:47:30;;;;;;;9.63;5.95;;;;;;;;;;5042513;28;20033;-80
2023/04/04 11:50:08;;;;;;;10.77;5.60;;;;;;;;;;5031845;28;20048;-80
2023/04/04 11:52:40;;;;;;;19.90;7.20;;;;;;;;;;5039989;28;20108;-80
2023/04/04 11:55:14;;;;;;;11.35;5.95;;;;;;;;;;5034808;28;20086;-78
2023/04/04 11:57:50;;;;;;;;;;;;;;;;;;5033802;28;20048;-80
2023/04/04 12:00:36;;;;;;;11.50;6.03;;;;;;;;;;5041413;28;19966;-80
2023/04/04 12:03:17;;;;;;;13.70;6.53;;;;;;;;;;5023011;28;20071;-79
2023/04/04 12:05:48;;;;;;;10.60;5.35;;;;;;;;;;5032735;28;20120;-80
2023/04/04 12:08:14;;;;;;;10.73;5.50;;;;;;;;;;5033845;28;20061;-79
2023/04/04 12:10:46;;;;;;;8.77;4.80;;;;;;;;;;5024819;28;20025;-79
2023/04/04 12:13:18;;;;;;;9.93;5.13;;;;;;;;;;5032027;28;20041;-78
2023/04/04 12:15:53;;;;;;;9.18;4.65;;;;;;;;;;5031067;28;20482;-79
2023/04/04 12:18:26;;;;;;;13.18;5.15;;;;;;;;;;5028733;28;20156;-80
2023/04/04 12:20:51;;;;;;;11.68;5.30;;;;;;;;;;5031333;28;20048;-79
2023/04/04 12:23:23;;;;;;;10.50;5.18;;;;;;;;;;5042986;28;20037;-79
2023/04/04 12:25:55;;;;;;;13.27;4.78;;;;;;;;;;5034037;28;20435;-79
2023/04/04 12:28:21;;;;;;;14.00;5.05;;;;;;;;;;5029938;28;20049;-79
2023/04/04 12:30:54;;;;;;;11.70;5.00;;;;;;;;;;5030857;28;20099;-79
2023/04/04 12:33:26;;;;;;;9.07;4.93;;;;;;;;;;5038360;28;20065;-79
2023/04/04 12:35:52;;;;;;;13.38;5.40;;;;;;;;;;5042289;28;20116;-80
2023/04/04 12:38:24;;;;;;;12.65;4.95;;;;;;;;;;5041305;28;20140;-79
2023/04/04 12:40:56;;;;;;;10.00;4.25;;;;;;;;;;5034282;28;20477;-79
2023/04/04 12:43:33;;;;;;;10.60;5.45;;;;;;;;;;5033365;28;20566;-80
2023/04/04 12:46:07;;;;;;;8.63;5.03;;;;;;;;;;5032845;28;20370;-79
2023/04/04 12:48:33;;;;;;;11.68;4.88;;;;;;;;;;5031299;28;20028;-79
2023/04/04 12:51:07;;;;;;;12.52;5.55;;;;;;;;;;5033809;28;20033;-80
2023/04/04 12:53:51;;;;;;;11.18;5.00;;;;;;;;;;5042974;28;20048;-80
2023/04/04 12:56:23;;;;;;;9.40;4.68;;;;;;;;;;5038408;28;20127;-80
2023/04/04 12:59:02;;;;;;;9.85;4.95;;;;;;;;;;5045170;28;20104;-78
2023/04/04 13:01:35;;;;;;;9.32;4.70;;;;;;;;;;5036136;28;20477;-80
2023/04/04 13:04:08;;;;;;;13.23;5.03;;;;;;;;;;5036882;28;20076;-79
2023/04/04 13:06:42;;;;;;;12.38;4.97;;;;;;;;;;5043950;28;20033;-80
2023/04/04 13:09:19;;;;;;;11.35;4.97;;;;;;;;;;5041541;28;20144;-79
2023/04/04 13:12:17;;;;;;;7.97;4.45;;;;;;;;;;5047515;28;20029;-79
2023/04/04 13:15:03;;;;;;;9.32;5.00;;;;;;;;;;5045928;28;20064;-80
2023/04/04 13:18:05;;;;;;;14.05;6.25;;;;;;;;;;5036202;28;20037;-82
2023/04/04 13:20:38;;;;;;;10.75;5.13;;;;;;;;;;5026208;28;20064;-81
2023/04/04 13:23:03;;;;;;;12.82;5.68;;;;;;;;;;5032422;28;20053;-79
2023/04/04 13:25:35;;;;;;;9.25;5.25;;;;;;;;;;5035832;28;20025;-81
2023/04/04 13:28:10;;;;;;;9.82;5.70;;;;;;;;;;5040689;28;20427;-80
2023/04/04 13:30:47;;;;;;;10.60;4.25;;;;;;;;;;5038062;28;20477;-81
2023/04/04 13:33:21;;;;;;;8.40;5.03;;;;;;;;;;5041668;28;20029;-80
2023/04/04 13:35:53;;;;;;;10.88;5.63;;;;;;;;;;5033730;28;20034;-80
2023/04/04 13:38:18;;;;;;;7.68;4.15;;;;;;;;;;5037255;28;20079;-80
2023/04/04 13:40:50;;;;;;;10.57;5.15;;;;;;;;;;5044616;28;20068;-80
2023/04/04 13:43:22;;;;;;;9.45;5.35;;;;;;;;;;5041528;28;20905;-80
2023/04/04 13:45:47;;;;;;;10.23;5.82;;;;;;;;;;5043621;28;20145;-80
2023/04/04 13:48:19;;;;;;;11.90;5.80;;;;;;;;;;5037279;28;20120;-80
2023/04/04 13:50:53;;;;;;;8.45;5.05;;;;;;;;;;5033696;28;20091;-79
2023/04/04 13:53:19;;;;;;;16.38;5.40;;;;;;;;;;5033214;28;20507;-80
2023/04/04 13:55:51;;;;;;;9.68;5.70;;;;;;;;;;5047990;28;20025;-79
2023/04/04 13:58:23;;;;;;;9.98;5.05;;;;;;;;;;5033833;28;20045;-80
2023/04/04 14:00:48;;;;;;;14.70;5.40;;;;;;;;;;5038049;28;20427;-80
2023/04/04 14:03:20;;;;;;;9.30;5.10;;;;;;;;;;5038233;28;20034;-80
2023/04/04 14:05:52;;;;;;;12.95;4.90;;;;;;;;;;5043601;28;20075;-80
2023/04/04 14:08:17;;;;;;;10.10;5.72;;;;;;;;;;5036800;28;20041;-80
2023/04/04 14:10:49;;;;;;;7.80;5.38;;;;;;;;;;5040210;28;20048;-80
2023/04/04 14:13:21;;;;;;;7.60;4.68;;;;;;;;;;5038545;28;20049;-79
2023/04/04 14:15:47;;;;;;;12.52;5.93;;;;;;;;;;5039123;28;20052;-79
2023/04/04 14:18:19;;;;;;;10.40;5.55;;;;;;;;;;5046837;28;20624;-80
2023/04/04 14:20:52;;;;;;;9.43;5.22;;;;;;;;;;5046294;28;20037;-80
2023/04/04 14:23:17;;;;;;;9.95;5.88;;;;;;;;;;5046021;28;20043;-80
2023/04/04 14:25:49;;;;;;;12.32;5.97;;;;;;;;;;5040132;28;20104;-79
2023/04/04 14:28:21;;;;;;;11.65;5.32;;;;;;;;;;5032977;28;20099;-80
2023/04/04 14:30:48;;;;;;;10.98;5.68;;;;;;;;;;5043806;28;20116;-80
2023/04/04 14:33:21;;;;;;;14.95;5.82;;;;;;;;;;5039923;28;20032;-80
2023/04/04 14:35:53;;;;;;;14.85;6.30;;;;;;;;;;5037909;28;20116;-80
2023/04/04 14:38:18;;;;;;;9.60;5.60;;;;;;;;;;5031643;28;20025;-80
2023/04/04 14:40:51;;;;;;;15.73;5.95;;;;;;;;;;5042793;28;20029;-80
2023/04/04 14:43:23;;;;;;;10.32;5.25;;;;;;;;;;5038422;28;20045;-80
2023/04/04 14:45:48;;;;;;;10.45;5.47;;;;;;;;;;5033576;28;20052;-80
2023/04/04 14:48:20;;;;;;;9.45;5.82;;;;;;;;;;5048320;28;20532;-80
2023/04/04 14:50:52;;;;;;;8.63;5.65;;;;;;;;;;5044513;28;20394;-80
2023/04/04 14:53:17;;;;;;;12.23;5.70;;;;;;;;;;5040950;28;20509;-80
2023/04/04 14:55:51;;;;;;;13.57;6.68;;;;;;;;;;5041634;28;20068;-79
2023/04/04 14:58:23;;;;;;;12.77;5.63;;;;;;;;;;5030332;28;20041;-80
2023/04/04 15:00:49;;;;;;;16.02;6.68;;;;;;;;;;5042502;28;20037;-80
2023/04/04 15:03:20;;;;;;;11.32;5.32;;;;;;;;;;5040397;28;20029;-80